Cairns, Queensland

4:04 PM EST on August 22, 2014 (GMT +1000)
Cairns International | Change Station
CLOSE
Current Station
Airport
Location: Cairns,
Elevation: 10 ft
Nearby Weather Stations

Elev 10 ft 16.87 °S, 145.75 °E | Updated 34 minutes ago

Partly Cloudy
Partly Cloudy
79 °F
Feels Like 79 °F
N
17
Wind Variable Wind from ESE

Today
High -- | Low -- °F
--% Chance of Precip.
Yesterday
High -- | Low -- °F
Precip. -- in
6:31 AM 6:09 PM
Waning Crescent, 10% visible
Pressure 29.98 in
Visibility 6.2 miles
Clouds Few 2600 ft
Dew Point 63 °F
Humidity 57%
Rainfall 0.00 in
Snow Depth Not available.
UV 4 out of 12
Pollen Not available.
Air Quality Not available.
Flu Activity Not available.
METAR YBCS 220530Z 12015KT 9999 FEW026 26/17 Q1015

More Conditions Fewer Conditions

Pressure 29.98 in
Visibility 6.2 miles
Clouds Few 2600 ft
Dew Point 63 °F
Humidity 57%
Rainfall 0.00 in
Snow Depth Not available.
UV 4 out of 12
Pollen Not available.
Air Quality Not available.
Flu Activity Not available.
METAR YBCS 220530Z 12015KT 9999 FEW026 26/17 Q1015

More Conditions Fewer Conditions

10-Day Weather Forecast

Almanac

Astronomy

Aug. 22, 2014 Rise Set
Actual Time 6:31 AM EST 6:09 PM EST
Civil Twilight 6:09 AM EST 6:31 PM EST
Nautical Twilight 5:43 AM EST 6:56 PM EST
Astronomical Twilight 5:18 AM EST 7:21 PM EST
Moon 3:48 AM EST 3:27 PM EST
Length of Visible Light 12h 21m
Length of Day
11h 37m
Tomorrow will be 0m 50s longer.
Waning Crescent, 10% of the Moon is Illuminated
Today
Waning Crescent
Aug 25
New
Sep 2
First Quarter
Sep 8
Full
Sep 15
Last Quarter

Yesterday's Extremes

Country Highs Country Lows

Community

WunderPhotos

Upload Photos

1,746,131 photos uploaded!

Nearby

Snow Depth

Not available.

Earthquake Activity

City Distance Mag. Time & Date
No recent earthquake activity has been reported nearby.
Minimum magnitude displayed is 2.5.

Coastal Water Temperatures

Place Temperature
No Stations Reporting

Nearby Weather Stations